sensor_id;sensor_type;location;lat;lon;timestamp;P1;durP1;ratioP1;P2;durP2;ratioP2
16967;SDS011;64862;54.398;10.126;2023-03-01T00:02:44;35.85;;;19.90;;
16967;SDS011;64862;54.398;10.126;2023-03-01T00:12:47;47.67;;;21.23;;
16967;SDS011;64862;54.398;10.126;2023-03-01T00:22:49;36.42;;;19.65;;
16967;SDS011;64862;54.398;10.126;2023-03-01T00:32:53;31.35;;;17.48;;
16967;SDS011;64862;54.398;10.126;2023-03-01T00:42:55;37.65;;;15.40;;
16967;SDS011;64862;54.398;10.126;2023-03-01T00:52:58;47.10;;;16.15;;
16967;SDS011;64862;54.398;10.126;2023-03-01T01:03:01;24.25;;;14.57;;
16967;SDS011;64862;54.398;10.126;2023-03-01T01:13:04;24.92;;;13.27;;
16967;SDS011;64862;54.398;10.126;2023-03-01T01:23:06;22.85;;;13.07;;
16967;SDS011;64862;54.398;10.126;2023-03-01T01:33:10;25.17;;;12.60;;
16967;SDS011;64862;54.398;10.126;2023-03-01T01:43:14;26.67;;;13.43;;
16967;SDS011;64862;54.398;10.126;2023-03-01T01:53:22;27.40;;;12.98;;
16967;SDS011;64862;54.398;10.126;2023-03-01T02:03:27;24.77;;;13.32;;
16967;SDS011;64862;54.398;10.126;2023-03-01T02:13:34;45.80;;;13.40;;
16967;SDS011;64862;54.398;10.126;2023-03-01T02:23:37;21.48;;;11.77;;
16967;SDS011;64862;54.398;10.126;2023-03-01T02:33:41;31.98;;;12.23;;
16967;SDS011;64862;54.398;10.126;2023-03-01T02:43:45;29.95;;;11.82;;
16967;SDS011;64862;54.398;10.126;2023-03-01T02:53:50;21.63;;;11.40;;
16967;SDS011;64862;54.398;10.126;2023-03-01T03:04:00;18.40;;;11.57;;
16967;SDS011;64862;54.398;10.126;2023-03-01T03:14:03;20.83;;;11.82;;
16967;SDS011;64862;54.398;10.126;2023-03-01T03:24:06;18.90;;;11.20;;
16967;SDS011;64862;54.398;10.126;2023-03-01T03:34:09;19.88;;;10.45;;
16967;SDS011;64862;54.398;10.126;2023-03-01T03:54:21;18.45;;;10.10;;
16967;SDS011;64862;54.398;10.126;2023-03-01T04:04:23;32.08;;;9.75;;
16967;SDS011;64862;54.398;10.126;2023-03-01T04:14:26;39.40;;;9.60;;
16967;SDS011;64862;54.398;10.126;2023-03-01T04:24:28;19.27;;;8.57;;
16967;SDS011;64862;54.398;10.126;2023-03-01T04:34:32;17.35;;;8.93;;
16967;SDS011;64862;54.398;10.126;2023-03-01T04:44:34;20.08;;;9.02;;
16967;SDS011;64862;54.398;10.126;2023-03-01T04:54:38;19.00;;;8.68;;
16967;SDS011;64862;54.398;10.126;2023-03-01T05:04:40;32.30;;;8.57;;
16967;SDS011;64862;54.398;10.126;2023-03-01T05:14:43;18.05;;;9.50;;
16967;SDS011;64862;54.398;10.126;2023-03-01T05:24:45;24.25;;;9.48;;
16967;SDS011;64862;54.398;10.126;2023-03-01T05:34:49;18.20;;;8.63;;
16967;SDS011;64862;54.398;10.126;2023-03-01T05:44:52;19.58;;;8.07;;
16967;SDS011;64862;54.398;10.126;2023-03-01T05:54:55;17.85;;;9.20;;
16967;SDS011;64862;54.398;10.126;2023-03-01T06:04:57;20.80;;;8.63;;
16967;SDS011;64862;54.398;10.126;2023-03-01T06:15:01;19.15;;;7.30;;
16967;SDS011;64862;54.398;10.126;2023-03-01T06:25:04;13.48;;;7.43;;
16967;SDS011;64862;54.398;10.126;2023-03-01T06:35:08;14.48;;;7.40;;
16967;SDS011;64862;54.398;10.126;2023-03-01T06:45:11;12.45;;;7.18;;
16967;SDS011;64862;54.398;10.126;2023-03-01T06:55:15;12.45;;;7.38;;
16967;SDS011;64862;54.398;10.126;2023-03-01T07:05:17;24.48;;;7.32;;
16967;SDS011;64862;54.398;10.126;2023-03-01T07:15:20;15.52;;;7.35;;
16967;SDS011;64862;54.398;10.126;2023-03-01T07:25:22;8.65;;;5.25;;
16967;SDS011;64862;54.398;10.126;2023-03-01T07:35:26;14.23;;;5.55;;
16967;SDS011;64862;54.398;10.126;2023-03-01T07:45:28;12.88;;;6.45;;
16967;SDS011;64862;54.398;10.126;2023-03-01T07:55:31;14.38;;;8.55;;
16967;SDS011;64862;54.398;10.126;2023-03-01T08:05:33;17.00;;;10.02;;
16967;SDS011;64862;54.398;10.126;2023-03-01T08:15:37;28.65;;;13.02;;
16967;SDS011;64862;54.398;10.126;2023-03-01T08:25:39;57.58;;;25.48;;
16967;SDS011;64862;54.398;10.126;2023-03-01T08:35:42;22.55;;;10.73;;
16967;SDS011;64862;54.398;10.126;2023-03-01T08:45:44;19.25;;;9.90;;
16967;SDS011;64862;54.398;10.126;2023-03-01T08:55:50;34.20;;;10.65;;
16967;SDS011;64862;54.398;10.126;2023-03-01T09:05:52;21.30;;;10.55;;
16967;SDS011;64862;54.398;10.126;2023-03-01T09:16:03;23.27;;;10.68;;
16967;SDS011;64862;54.398;10.126;2023-03-01T09:26:06;58.28;;;10.48;;
16967;SDS011;64862;54.398;10.126;2023-03-01T09:36:11;13.60;;;7.78;;
16967;SDS011;64862;54.398;10.126;2023-03-01T09:46:15;34.08;;;9.35;;
16967;SDS011;64862;54.398;10.126;2023-03-01T09:56:19;15.07;;;8.68;;
16967;SDS011;64862;54.398;10.126;2023-03-01T10:06:25;13.93;;;7.65;;
16967;SDS011;64862;54.398;10.126;2023-03-01T10:16:32;18.02;;;8.38;;
16967;SDS011;64862;54.398;10.126;2023-03-01T10:26:43;11.05;;;7.30;;
16967;SDS011;64862;54.398;10.126;2023-03-01T10:46:58;19.02;;;8.77;;
16967;SDS011;64862;54.398;10.126;2023-03-01T10:57:04;14.85;;;7.00;;
16967;SDS011;64862;54.398;10.126;2023-03-01T11:07:06;9.20;;;6.25;;
16967;SDS011;64862;54.398;10.126;2023-03-01T11:17:13;10.90;;;7.25;;
16967;SDS011;64862;54.398;10.126;2023-03-01T11:27:19;9.52;;;6.40;;
16967;SDS011;64862;54.398;10.126;2023-03-01T11:37:30;8.27;;;5.60;;
16967;SDS011;64862;54.398;10.126;2023-03-01T11:47:44;9.35;;;6.30;;
16967;SDS011;64862;54.398;10.126;2023-03-01T12:08:32;10.98;;;6.93;;
16967;SDS011;64862;54.398;10.126;2023-03-01T12:18:47;10.38;;;6.53;;
16967;SDS011;64862;54.398;10.126;2023-03-01T12:29:09;12.57;;;7.30;;
16967;SDS011;64862;54.398;10.126;2023-03-01T12:39:32;14.68;;;9.30;;
16967;SDS011;64862;54.398;10.126;2023-03-01T12:49:44;20.02;;;12.25;;
16967;SDS011;64862;54.398;10.126;2023-03-01T12:59:57;12.85;;;8.45;;
16967;SDS011;64862;54.398;10.126;2023-03-01T13:10:16;14.38;;;9.07;;
16967;SDS011;64862;54.398;10.126;2023-03-01T13:20:25;13.50;;;8.50;;
16967;SDS011;64862;54.398;10.126;2023-03-01T13:30:41;14.93;;;9.00;;
16967;SDS011;64862;54.398;10.126;2023-03-01T13:41:00;15.45;;;8.27;;
16967;SDS011;64862;54.398;10.126;2023-03-01T13:51:02;16.92;;;9.27;;
16967;SDS011;64862;54.398;10.126;2023-03-01T14:01:20;16.55;;;9.88;;
16967;SDS011;64862;54.398;10.126;2023-03-01T14:22:01;49.47;;;14.10;;
16967;SDS011;64862;54.398;10.126;2023-03-01T14:32:12;27.60;;;12.35;;
16967;SDS011;64862;54.398;10.126;2023-03-01T14:42:22;22.77;;;12.27;;
16967;SDS011;64862;54.398;10.126;2023-03-01T14:52:29;22.73;;;11.88;;
16967;SDS011;64862;54.398;10.126;2023-03-01T15:02:37;43.77;;;18.47;;
16967;SDS011;64862;54.398;10.126;2023-03-01T15:12:41;42.10;;;19.38;;
16967;SDS011;64862;54.398;10.126;2023-03-01T15:22:45;26.98;;;11.13;;
16967;SDS011;64862;54.398;10.126;2023-03-01T15:32:48;26.05;;;13.13;;
16967;SDS011;64862;54.398;10.126;2023-03-01T15:43:40;19.40;;;10.70;;
16967;SDS011;64862;54.398;10.126;2023-03-01T15:53:46;23.98;;;11.45;;
16967;SDS011;64862;54.398;10.126;2023-03-01T16:03:52;29.48;;;11.30;;
16967;SDS011;64862;54.398;10.126;2023-03-01T16:13:54;20.08;;;11.15;;
16967;SDS011;64862;54.398;10.126;2023-03-01T16:23:58;33.38;;;12.48;;
16967;SDS011;64862;54.398;10.126;2023-03-01T16:33:59;27.02;;;13.65;;
16967;SDS011;64862;54.398;10.126;2023-03-01T16:44:03;27.88;;;15.15;;
16967;SDS011;64862;54.398;10.126;2023-03-01T16:54:05;33.10;;;16.58;;
16967;SDS011;64862;54.398;10.126;2023-03-01T17:04:10;30.52;;;16.05;;
16967;SDS011;64862;54.398;10.126;2023-03-01T17:14:13;37.13;;;16.85;;
16967;SDS011;64862;54.398;10.126;2023-03-01T17:24:17;36.42;;;17.63;;
16967;SDS011;64862;54.398;10.126;2023-03-01T17:34:19;34.03;;;18.25;;
16967;SDS011;64862;54.398;10.126;2023-03-01T17:44:22;31.10;;;16.52;;
16967;SDS011;64862;54.398;10.126;2023-03-01T17:54:25;33.65;;;16.98;;
16967;SDS011;64862;54.398;10.126;2023-03-01T18:04:28;33.50;;;17.83;;
16967;SDS011;64862;54.398;10.126;2023-03-01T18:14:31;28.98;;;16.35;;
16967;SDS011;64862;54.398;10.126;2023-03-01T18:34:38;33.97;;;17.23;;
16967;SDS011;64862;54.398;10.126;2023-03-01T18:44:41;37.08;;;19.13;;
16967;SDS011;64862;54.398;10.126;2023-03-01T18:54:43;37.42;;;18.70;;
16967;SDS011;64862;54.398;10.126;2023-03-01T19:04:49;41.90;;;19.70;;
16967;SDS011;64862;54.398;10.126;2023-03-01T19:14:51;39.85;;;20.30;;
16967;SDS011;64862;54.398;10.126;2023-03-01T19:24:54;43.83;;;21.50;;
16967;SDS011;64862;54.398;10.126;2023-03-01T19:34:57;40.70;;;20.17;;
16967;SDS011;64862;54.398;10.126;2023-03-01T19:45:00;40.03;;;21.00;;
16967;SDS011;64862;54.398;10.126;2023-03-01T19:55:03;49.17;;;22.40;;
16967;SDS011;64862;54.398;10.126;2023-03-01T20:05:07;47.67;;;23.63;;
16967;SDS011;64862;54.398;10.126;2023-03-01T20:15:09;49.03;;;23.17;;
16967;SDS011;64862;54.398;10.126;2023-03-01T20:25:12;57.83;;;25.20;;
16967;SDS011;64862;54.398;10.126;2023-03-01T20:35:14;48.13;;;24.17;;
16967;SDS011;64862;54.398;10.126;2023-03-01T20:45:18;55.83;;;25.02;;
16967;SDS011;64862;54.398;10.126;2023-03-01T20:55:20;61.88;;;26.67;;
16967;SDS011;64862;54.398;10.126;2023-03-01T21:05:23;67.10;;;28.45;;
16967;SDS011;64862;54.398;10.126;2023-03-01T21:15:26;60.60;;;28.10;;
16967;SDS011;64862;54.398;10.126;2023-03-01T21:25:29;57.67;;;27.75;;
16967;SDS011;64862;54.398;10.126;2023-03-01T21:35:34;56.85;;;27.33;;
16967;SDS011;64862;54.398;10.126;2023-03-01T21:45:37;63.60;;;27.30;;
16967;SDS011;64862;54.398;10.126;2023-03-01T21:55:45;56.13;;;27.63;;
16967;SDS011;64862;54.398;10.126;2023-03-01T22:05:53;58.47;;;28.02;;
16967;SDS011;64862;54.398;10.126;2023-03-01T22:15:58;66.33;;;29.87;;
16967;SDS011;64862;54.398;10.126;2023-03-01T22:26:01;63.88;;;29.15;;
16967;SDS011;64862;54.398;10.126;2023-03-01T22:36:04;57.75;;;28.50;;
16967;SDS011;64862;54.398;10.126;2023-03-01T22:46:12;60.00;;;27.83;;
16967;SDS011;64862;54.398;10.126;2023-03-01T22:56:16;64.40;;;29.90;;
16967;SDS011;64862;54.398;10.126;2023-03-01T23:06:21;55.17;;;25.92;;
16967;SDS011;64862;54.398;10.126;2023-03-01T23:16:24;62.97;;;27.98;;
16967;SDS011;64862;54.398;10.126;2023-03-01T23:26:28;54.78;;;24.42;;
16967;SDS011;64862;54.398;10.126;2023-03-01T23:36:30;59.40;;;25.15;;
16967;SDS011;64862;54.398;10.126;2023-03-01T23:46:36;61.08;;;26.80;;
16967;SDS011;64862;54.398;10.126;2023-03-01T23:56:39;86.25;;;28.75;;
